Time;durP1;ratioP1;P1;durP2;ratioP2;P2;SDS_P1;SDS_P2;PMS_P1;PMS_P2;Temp;Humidity;BMP_temperature;BMP_pressure;BME280_temperature;BME280_humidity;BME280_pressure;Samples;Min_cycle;Max_cycle;Signal;HPM_P1;HPM_P2
2022/10/31 00:01:00;;;;;;;13.23;7.55;;;16.40;99.90;;;;;;5013944;28;20251;-89
2022/10/31 00:03:26;;;;;;;14.95;8.00;;;16.60;99.90;;;;;;5012538;28;20204;-88
2022/10/31 00:05:52;;;;;;;17.75;7.88;;;16.60;99.90;;;;;;5013560;28;20196;-87
2022/10/31 00:08:18;;;;;;;16.05;7.32;;;16.50;99.90;;;;;;5012408;28;20283;-89
2022/10/31 00:10:45;;;;;;;13.73;7.57;;;16.60;99.90;;;;;;5012489;28;20248;-88
2022/10/31 00:13:11;;;;;;;10.18;6.70;;;16.50;99.90;;;;;;5012695;28;20295;-88
2022/10/31 00:15:39;;;;;;;14.60;7.10;;;16.50;99.90;;;;;;5013684;28;20196;-88
2022/10/31 00:18:06;;;;;;;12.57;7.55;;;16.60;99.90;;;;;;5008216;28;20188;-89
2022/10/31 00:20:32;;;;;;;16.52;7.07;;;16.60;99.90;;;;;;4994265;28;20169;-88
2022/10/31 00:23:01;;;;;;;9.60;7.22;;;16.60;99.90;;;;;;4992882;28;20161;-86
2022/10/31 00:25:28;;;;;;;12.63;7.50;;;16.40;99.90;;;;;;4993805;28;20177;-86
2022/10/31 00:27:54;;;;;;;14.43;6.57;;;16.30;99.90;;;;;;4993954;28;20200;-89
2022/10/31 00:30:20;;;;;;;8.88;6.90;;;16.30;99.90;;;;;;4993732;28;20177;-87
2022/10/31 00:32:45;;;;;;;10.07;7.05;;;16.20;99.90;;;;;;4993961;28;20554;-89
2022/10/31 00:35:11;;;;;;;10.75;7.05;;;16.10;99.90;;;;;;4992957;28;20169;-87
2022/10/31 00:37:37;;;;;;;20.25;7.65;;;16.10;99.90;;;;;;4993980;28;20279;-89
2022/10/31 00:40:02;;;;;;;12.07;6.88;;;16.10;99.90;;;;;;4993993;28;20522;-88
2022/10/31 00:42:28;;;;;;;13.63;6.35;;;16.10;99.90;;;;;;4994460;28;20166;-88
2022/10/31 00:44:54;;;;;;;10.50;6.82;;;16.20;99.90;;;;;;4997615;28;20169;-89
2022/10/31 00:47:19;;;;;;;13.95;7.47;;;16.30;99.90;;;;;;4997569;28;20189;-89
2022/10/31 00:49:45;;;;;;;11.88;7.55;;;16.20;99.90;;;;;;4997865;28;20169;-84
2022/10/31 00:52:10;;;;;;;8.70;6.63;;;16.10;99.90;;;;;;4997661;28;20219;-89
2022/10/31 00:54:36;;;;;;;15.98;7.35;;;15.90;99.90;;;;;;4997521;28;20177;-89
2022/10/31 00:57:01;;;;;;;19.98;7.70;;;15.80;99.90;;;;;;4997136;28;20185;-89
2022/10/31 00:59:27;;;;;;;16.45;7.32;;;15.80;99.90;;;;;;4997085;28;20169;-86
2022/10/31 01:01:52;;;;;;;8.40;7.10;;;15.70;99.90;;;;;;4997058;28;20177;-86
2022/10/31 01:04:18;;;;;;;13.27;6.90;;;15.60;99.90;;;;;;4997157;28;20553;-89
2022/10/31 01:06:44;;;;;;;13.70;7.15;;;15.60;99.90;;;;;;5012257;28;20196;-81
2022/10/31 01:09:09;;;;;;;14.00;6.97;;;15.60;99.90;;;;;;4997242;28;20169;-88
2022/10/31 01:11:35;;;;;;;23.77;7.80;;;15.60;99.90;;;;;;4996007;28;20169;-79
2022/10/31 01:14:00;;;;;;;7.35;6.68;;;15.50;99.90;;;;;;4997164;28;20527;-88
2022/10/31 01:16:29;;;;;;;20.90;7.30;;;15.50;99.90;;;;;;5012530;28;20525;-81
2022/10/31 01:18:54;;;;;;;16.63;7.88;;;15.40;99.90;;;;;;4997157;28;20181;-89
2022/10/31 01:21:23;;;;;;;13.18;6.85;;;15.30;99.90;;;;;;4997448;28;20169;-89
2022/10/31 01:23:50;;;;;;;12.15;6.85;;;15.40;99.90;;;;;;4996854;28;20174;-84
2022/10/31 01:26:19;;;;;;;12.20;6.60;;;15.40;99.90;;;;;;4996688;28;20181;-88
2022/10/31 01:28:46;;;;;;;9.80;6.80;;;15.40;99.90;;;;;;4997314;28;20173;-88
2022/10/31 01:31:12;;;;;;;10.45;6.95;;;15.50;99.90;;;;;;4996745;28;20174;-88
2022/10/31 01:33:39;;;;;;;19.35;7.60;;;15.50;99.90;;;;;;4996678;28;20201;-87
2022/10/31 01:36:32;;;;;;;11.88;6.53;;;15.50;99.90;;;;;;4996498;28;20169;-82
2022/10/31 01:39:00;;;;;;;13.60;5.78;;;15.50;99.90;;;;;;4995120;28;20181;-84
2022/10/31 01:41:29;;;;;;;11.15;7.00;;;15.50;99.90;;;;;;4996808;28;20205;-87
2022/10/31 01:43:59;;;;;;;13.68;6.28;;;15.50;99.90;;;;;;4995705;28;20301;-83
2022/10/31 01:46:32;;;;;;;7.60;6.47;;;15.60;99.90;;;;;;4996632;28;20181;-85
2022/10/31 01:49:02;;;;;;;13.25;6.15;;;15.60;99.90;;;;;;5011951;28;20235;-81
2022/10/31 01:51:34;;;;;;;12.93;6.43;;;15.60;99.90;;;;;;4996667;28;20184;-85
2022/10/31 01:54:05;;;;;;;11.80;7.15;;;15.70;99.90;;;;;;4995161;28;20259;-88
2022/10/31 01:56:34;;;;;;;12.63;6.80;;;15.70;99.90;;;;;;4995259;28;20234;-88
2022/10/31 01:59:02;;;;;;;13.45;5.75;;;15.60;99.90;;;;;;4996491;28;20177;-89
2022/10/31 02:01:28;;;;;;;10.02;6.10;;;15.60;99.90;;;;;;4996482;28;20200;-89
2022/10/31 02:03:55;;;;;;;8.05;6.00;;;15.60;99.90;;;;;;4996042;28;20169;-87
2022/10/31 02:06:38;;;;;;;8.57;5.38;;;15.60;99.90;;;;;;4996224;28;20170;-88
2022/10/31 02:09:05;;;;;;;9.75;6.82;;;15.60;99.90;;;;;;4996120;28;20755;-89
2022/10/31 02:11:32;;;;;;;8.63;6.18;;;15.60;99.90;;;;;;4996099;28;20169;-88
2022/10/31 02:14:01;;;;;;;10.43;5.97;;;15.60;99.90;;;;;;4996094;28;20601;-87
2022/10/31 02:16:26;;;;;;;8.20;5.85;;;15.50;99.90;;;;;;4995881;28;20185;-88
2022/10/31 02:18:52;;;;;;;12.93;5.63;;;15.50;99.90;;;;;;4995787;28;20173;-89
2022/10/31 02:21:51;;;;;;;7.60;5.85;;;15.40;99.90;;;;;;4996013;28;20530;-89
2022/10/31 02:24:35;;;;;;;8.57;6.32;;;15.20;99.90;;;;;;4996184;28;20215;-88
2022/10/31 02:27:06;;;;;;;10.10;6.35;;;15.20;99.90;;;;;;4994438;28;20221;-86
2022/10/31 02:30:00;;;;;;;16.70;5.70;;;15.30;99.90;;;;;;4995690;28;20709;-88
2022/10/31 02:32:54;;;;;;;13.00;6.57;;;15.30;99.90;;;;;;4994842;28;20169;-88
2022/10/31 02:35:54;;;;;;;11.65;6.68;;;15.30;99.90;;;;;;4995678;28;20204;-88
2022/10/31 02:38:42;;;;;;;6.10;5.38;;;15.30;99.90;;;;;;4995509;28;20313;-87
2022/10/31 02:41:16;;;;;;;13.20;5.30;;;15.20;99.90;;;;;;5002761;28;20199;-87
2022/10/31 02:44:09;;;;;;;9.48;6.00;;;15.10;99.90;;;;;;4994099;28;20636;-80
2022/10/31 02:46:41;;;;;;;15.43;6.28;;;15.10;99.90;;;;;;4994983;28;20232;-87
2022/10/31 02:49:14;;;;;;;10.75;6.32;;;15.10;99.90;;;;;;4995762;28;20639;-89
2022/10/31 02:51:40;;;;;;;9.63;5.93;;;15.00;99.90;;;;;;4995086;28;20169;-88
2022/10/31 02:54:15;;;;;;;14.25;6.55;;;14.90;99.90;;;;;;4995145;28;20564;-88
2022/10/31 02:56:41;;;;;;;10.55;5.82;;;14.80;99.90;;;;;;4995145;28;20188;-87
2022/10/31 02:59:06;;;;;;;14.43;6.38;;;14.70;99.90;;;;;;4994746;28;20180;-80
2022/10/31 03:02:07;;;;;;;7.18;6.32;;;14.60;99.90;;;;;;4995173;28;20176;-88
2022/10/31 03:04:47;;;;;;;8.70;6.65;;;14.50;99.90;;;;;;4986078;28;20207;-89
2022/10/31 03:07:29;;;;;;;13.35;6.32;;;14.50;99.90;;;;;;4994540;28;20189;-84
2022/10/31 03:10:04;;;;;;;12.48;5.93;;;14.60;99.90;;;;;;4994666;28;20216;-79
2022/10/31 03:13:00;;;;;;;10.85;6.45;;;14.60;99.90;;;;;;4994924;28;20215;-88
2022/10/31 03:15:32;;;;;;;12.75;6.78;;;14.60;99.90;;;;;;4995026;28;20177;-89
2022/10/31 03:18:04;;;;;;;18.48;6.03;;;14.60;99.90;;;;;;4994139;28;20190;-88
2022/10/31 03:20:51;;;;;;;14.10;6.55;;;14.50;99.90;;;;;;4993990;28;20635;-82
2022/10/31 03:23:19;;;;;;;6.68;6.00;;;14.30;99.90;;;;;;4994836;28;20157;-89
2022/10/31 03:25:46;;;;;;;6.78;6.07;;;14.30;99.90;;;;;;4994322;28;20239;-89
2022/10/31 03:28:16;;;;;;;9.50;6.20;;;14.20;99.90;;;;;;4994436;28;20272;-89
2022/10/31 03:30:44;;;;;;;11.65;6.28;;;14.20;99.90;;;;;;4994372;28;20165;-88
2022/10/31 03:33:16;;;;;;;9.40;6.65;;;14.20;99.90;;;;;;4993940;28;20667;-81
2022/10/31 03:35:44;;;;;;;16.20;6.40;;;14.40;99.90;;;;;;4992837;28;20511;-80
2022/10/31 03:38:11;;;;;;;10.57;6.57;;;14.30;99.90;;;;;;4994369;28;20223;-87
2022/10/31 03:40:38;;;;;;;8.68;6.25;;;14.20;99.90;;;;;;4994583;28;20161;-87
2022/10/31 03:43:08;;;;;;;8.77;6.38;;;14.20;99.90;;;;;;4993138;28;20170;-89
2022/10/31 03:45:40;;;;;;;9.35;5.90;;;14.20;99.90;;;;;;4994364;28;20647;-79
2022/10/31 03:48:06;;;;;;;17.88;5.57;;;14.30;99.90;;;;;;4994049;28;20212;-89
2022/10/31 03:50:44;;;;;;;11.43;6.65;;;14.30;99.90;;;;;;4994496;28;20623;-79
2022/10/31 03:53:41;;;;;;;8.00;6.00;;;14.40;99.90;;;;;;4993064;28;20208;-88
2022/10/31 03:56:18;;;;;;;12.73;6.53;;;14.50;99.90;;;;;;4985761;28;20216;-88
2022/10/31 03:59:02;;;;;;;13.02;6.72;;;14.30;99.90;;;;;;4994295;28;20185;-89
2022/10/31 04:01:30;;;;;;;10.55;6.18;;;14.20;99.90;;;;;;4994008;28;20169;-86
2022/10/31 04:03:57;;;;;;;11.63;7.00;;;14.00;99.90;;;;;;4993788;28;20169;-80
2022/10/31 04:06:24;;;;;;;18.25;6.55;;;14.10;99.90;;;;;;4992557;28;20180;-84
2022/10/31 04:08:59;;;;;;;11.45;6.20;;;14.00;99.90;;;;;;4993748;28;20188;-85
2022/10/31 04:11:30;;;;;;;10.13;6.55;;;14.10;99.90;;;;;;4993270;28;20165;-82
2022/10/31 04:13:58;;;;;;;7.35;6.47;;;14.00;99.90;;;;;;4993072;28;20697;-79
2022/10/31 04:16:24;;;;;;;7.28;6.57;;;14.00;99.90;;;;;;4993247;28;20619;-85
2022/10/31 04:18:50;;;;;;;9.07;6.07;;;14.00;99.90;;;;;;4995522;28;20191;-79
2022/10/31 04:21:16;;;;;;;13.43;6.18;;;14.10;99.90;;;;;;4997716;28;20165;-87
2022/10/31 04:23:42;;;;;;;16.40;6.85;;;14.00;99.90;;;;;;4997907;28;20260;-88
2022/10/31 04:26:11;;;;;;;13.20;6.38;;;13.90;99.90;;;;;;4996580;28;20264;-86
2022/10/31 04:28:37;;;;;;;7.75;6.35;;;13.90;99.90;;;;;;4996817;28;20204;-87
2022/10/31 04:31:02;;;;;;;7.78;6.72;;;13.90;99.90;;;;;;4996793;28;20670;-86
2022/10/31 04:33:28;;;;;;;8.88;6.35;;;14.00;99.90;;;;;;4997759;28;20739;-89
2022/10/31 04:35:53;;;;;;;11.48;6.32;;;13.90;99.90;;;;;;4997805;28;20173;-79
2022/10/31 04:38:19;;;;;;;9.45;6.95;;;13.90;99.90;;;;;;4997326;28;20232;-87
2022/10/31 04:40:45;;;;;;;9.90;7.32;;;13.80;99.90;;;;;;4997155;28;20174;-80
2022/10/31 04:43:11;;;;;;;11.23;6.70;;;13.80;99.90;;;;;;4997369;28;20165;-87
2022/10/31 04:45:37;;;;;;;13.80;7.63;;;13.80;99.90;;;;;;4996532;28;20624;-88
2022/10/31 04:48:03;;;;;;;11.60;6.72;;;13.90;99.90;;;;;;4997232;28;20181;-79
2022/10/31 04:50:28;;;;;;;13.00;5.88;;;13.90;99.90;;;;;;4997126;28;20189;-88
2022/10/31 04:52:54;;;;;;;13.90;7.55;;;13.80;99.90;;;;;;4996627;28;20208;-88
2022/10/31 04:55:19;;;;;;;7.82;6.78;;;13.80;99.90;;;;;;4996813;28;20252;-87
2022/10/31 04:57:47;;;;;;;11.13;6.82;;;13.90;99.90;;;;;;4996584;28;20192;-79
2022/10/31 05:00:15;;;;;;;17.33;7.07;;;13.80;99.90;;;;;;5014846;28;20529;-88
2022/10/31 05:02:45;;;;;;;18.08;7.07;;;13.80;99.90;;;;;;5015820;28;20173;-88
2022/10/31 05:05:11;;;;;;;13.40;6.90;;;13.90;99.90;;;;;;5015645;28;20212;-81
2022/10/31 05:07:41;;;;;;;14.63;7.43;;;13.80;99.90;;;;;;5016750;28;20195;-83
2022/10/31 05:10:12;;;;;;;17.60;7.22;;;13.80;99.90;;;;;;5017086;28;20693;-88
2022/10/31 05:12:44;;;;;;;14.32;7.25;;;13.80;99.90;;;;;;5015555;28;20188;-88
2022/10/31 05:15:10;;;;;;;11.95;6.97;;;13.80;99.90;;;;;;5016702;28;20250;-89
2022/10/31 05:17:35;;;;;;;14.10;7.50;;;13.80;99.90;;;;;;5016619;28;20646;-89
2022/10/31 05:20:01;;;;;;;15.88;7.50;;;13.90;99.90;;;;;;5016304;28;20177;-88
2022/10/31 05:22:27;;;;;;;11.20;6.38;;;14.00;99.90;;;;;;5016452;28;20165;-86
2022/10/31 05:24:52;;;;;;;11.07;6.32;;;14.00;99.90;;;;;;5016347;28;20216;-88
2022/10/31 05:27:18;;;;;;;16.50;6.60;;;14.00;99.90;;;;;;5016536;28;20189;-87
2022/10/31 05:29:43;;;;;;;13.40;7.13;;;13.90;99.90;;;;;;5031770;28;20172;-88
2022/10/31 05:32:09;;;;;;;19.98;7.05;;;13.70;99.90;;;;;;5016223;28;20169;-83
2022/10/31 05:34:34;;;;;;;12.90;7.10;;;13.80;99.90;;;;;;5016442;28;20254;-87
2022/10/31 05:37:00;;;;;;;14.70;6.88;;;13.80;99.90;;;;;;5016148;28;20192;-89
2022/10/31 05:39:25;;;;;;;12.88;6.70;;;14.00;99.90;;;;;;5016386;28;20607;-89
2022/10/31 05:41:51;;;;;;;11.00;7.20;;;14.00;99.90;;;;;;5015250;28;20191;-88
2022/10/31 05:44:16;;;;;;;11.63;6.60;;;14.00;99.90;;;;;;5016198;28;20165;-88
2022/10/31 05:46:42;;;;;;;12.75;6.80;;;13.90;99.90;;;;;;5014819;28;20207;-89
2022/10/31 05:49:08;;;;;;;9.35;6.68;;;13.90;99.90;;;;;;5016564;28;20628;-89
2022/10/31 05:51:33;;;;;;;18.25;6.68;;;14.00;99.90;;;;;;5016394;28;20195;-88
2022/10/31 05:53:59;;;;;;;13.18;7.57;;;14.10;99.90;;;;;;5016110;28;20537;-87
2022/10/31 05:56:24;;;;;;;11.98;7.30;;;14.20;99.90;;;;;;5015710;28;20264;-89
2022/10/31 05:58:50;;;;;;;9.23;6.20;;;14.30;99.90;;;;;;5014757;28;20172;-88
2022/10/31 06:01:15;;;;;;;16.83;6.93;;;14.40;99.90;;;;;;5015584;28;20177;-88
2022/10/31 06:03:41;;;;;;;14.40;7.40;;;14.50;99.90;;;;;;5015929;28;20171;-87
2022/10/31 06:06:06;;;;;;;10.40;6.28;;;14.40;99.90;;;;;;5015734;28;20168;-88
2022/10/31 06:08:32;;;;;;;12.32;7.07;;;14.20;99.90;;;;;;5014742;28;20192;-88
2022/10/31 06:10:58;;;;;;;9.75;6.82;;;14.20;99.90;;;;;;5015824;28;20526;-85
2022/10/31 06:13:23;;;;;;;8.65;7.00;;;14.20;99.90;;;;;;5015595;28;20244;-83
2022/10/31 06:15:49;;;;;;;15.30;7.10;;;14.30;99.90;;;;;;5015223;28;20623;-86
2022/10/31 06:18:14;;;;;;;11.95;6.68;;;14.30;99.90;;;;;;5014955;28;20523;-83
2022/10/31 06:20:40;;;;;;;11.77;6.55;;;14.40;99.90;;;;;;5014091;28;20173;-89
2022/10/31 06:23:06;;;;;;;17.88;7.07;;;14.50;99.90;;;;;;5014981;28;20161;-80
2022/10/31 06:25:32;;;;;;;9.48;6.65;;;14.30;99.90;;;;;;5014888;28;20184;-89
2022/10/31 06:27:58;;;;;;;13.60;6.60;;;14.40;99.90;;;;;;5014247;28;20192;-88
2022/10/31 06:30:24;;;;;;;15.45;6.50;;;14.50;99.90;;;;;;5015099;28;20168;-84
2022/10/31 06:32:50;;;;;;;14.68;6.93;;;14.40;99.90;;;;;;5014380;28;20208;-86
2022/10/31 06:35:15;;;;;;;8.43;6.43;;;14.30;99.90;;;;;;5014401;28;20296;-86
2022/10/31 06:37:41;;;;;;;14.63;6.40;;;14.40;99.90;;;;;;5014770;28;20709;-87
2022/10/31 06:40:07;;;;;;;13.95;6.93;;;14.50;99.90;;;;;;5013990;28;20175;-81
2022/10/31 06:42:33;;;;;;;16.20;6.82;;;14.50;99.90;;;;;;5014373;28;20204;-89
2022/10/31 06:44:58;;;;;;;16.25;7.93;;;14.60;99.90;;;;;;5013182;28;20192;-81
2022/10/31 06:47:24;;;;;;;8.95;7.15;;;14.50;99.90;;;;;;5014780;28;20685;-87
2022/10/31 06:49:49;;;;;;;11.70;7.07;;;14.60;99.90;;;;;;5015213;28;20157;-87
2022/10/31 06:52:15;;;;;;;11.70;6.90;;;14.80;99.90;;;;;;5013822;28;20183;-86
2022/10/31 06:54:41;;;;;;;12.38;6.68;;;14.70;99.90;;;;;;5013310;28;20219;-88
2022/10/31 06:57:06;;;;;;;10.63;6.82;;;14.80;99.90;;;;;;5014456;28;20259;-89
2022/10/31 06:59:32;;;;;;;16.73;6.32;;;14.80;99.90;;;;;;5014732;28;20180;-89
2022/10/31 07:01:58;;;;;;;15.10;6.30;;;14.60;99.90;;;;;;5014152;28;20173;-82
2022/10/31 07:04:24;;;;;;;15.57;6.60;;;14.60;99.90;;;;;;5014357;28;20202;-87
2022/10/31 07:06:52;;;;;;;16.17;7.20;;;14.60;99.90;;;;;;5014385;28;20181;-89
2022/10/31 07:09:18;;;;;;;14.20;7.43;;;14.80;99.90;;;;;;5014652;28;20179;-89
2022/10/31 07:11:44;;;;;;;12.15;7.63;;;14.80;99.90;;;;;;5014591;28;20169;-83
2022/10/31 07:14:09;;;;;;;18.48;7.47;;;14.90;99.90;;;;;;5014071;28;20697;-88
2022/10/31 07:16:35;;;;;;;16.48;7.32;;;15.10;99.90;;;;;;5014421;28;20161;-79
2022/10/31 07:19:01;;;;;;;22.33;8.38;;;15.20;99.90;;;;;;5019231;28;20175;-90
2022/10/31 07:21:56;;;;;;;7.57;6.80;;;15.30;99.90;;;;;;5015628;28;20176;-93
2022/10/31 07:24:22;;;;;;;21.90;8.07;;;15.30;99.90;;;;;;5019120;28;20204;-79
2022/10/31 07:26:48;;;;;;;16.95;8.35;;;15.40;99.90;;;;;;5028495;28;20242;-87
2022/10/31 07:29:14;;;;;;;23.10;9.18;;;15.50;99.90;;;;;;5012975;28;20191;-84
2022/10/31 07:31:40;;;;;;;14.70;7.97;;;15.60;99.90;;;;;;5014122;28;20631;-86
2022/10/31 07:34:05;;;;;;;16.75;8.65;;;15.60;99.90;;;;;;5014613;28;20204;-89
2022/10/31 07:36:31;;;;;;;14.65;7.25;;;15.60;99.90;;;;;;5013706;28;20556;-82
2022/10/31 07:38:58;;;;;;;13.77;7.57;;;15.70;99.90;;;;;;5012794;28;20168;-87
2022/10/31 07:41:23;;;;;;;16.58;8.73;;;15.70;99.90;;;;;;5012755;28;20175;-89
2022/10/31 07:43:49;;;;;;;21.67;9.10;;;15.70;99.90;;;;;;5013876;28;20531;-87
2022/10/31 07:46:14;;;;;;;24.70;8.65;;;15.80;99.90;;;;;;5013836;28;20223;-87
2022/10/31 07:48:41;;;;;;;14.23;8.18;;;15.90;99.90;;;;;;5013395;28;20218;-85
2022/10/31 07:51:06;;;;;;;15.80;8.75;;;15.90;99.90;;;;;;5013627;28;20168;-88
2022/10/31 07:53:32;;;;;;;11.30;8.55;;;16.00;99.90;;;;;;5014457;28;20188;-83
2022/10/31 07:55:58;;;;;;;19.77;10.10;;;15.90;99.90;;;;;;5012452;28;20199;-80
2022/10/31 07:58:24;;;;;;;15.05;9.23;;;15.90;99.90;;;;;;5011935;28;20214;-80
2022/10/31 08:00:50;;;;;;;27.63;10.80;;;15.80;99.90;;;;;;5000270;28;20181;-84
2022/10/31 08:03:18;;;;;;;17.13;11.32;;;15.90;99.90;;;;;;4996654;28;20549;-80
2022/10/31 08:05:46;;;;;;;15.85;10.23;;;15.80;99.90;;;;;;4992824;28;20241;-84
2022/10/31 08:08:13;;;;;;;18.80;10.30;;;15.80;99.90;;;;;;4991977;28;20248;-80
2022/10/31 08:10:40;;;;;;;16.05;9.27;;;15.90;99.90;;;;;;4998812;28;20179;-81
2022/10/31 08:13:11;;;;;;;20.77;8.85;;;16.10;99.90;;;;;;4991884;28;20615;-84
2022/10/31 08:15:39;;;;;;;13.30;8.85;;;15.80;99.90;;;;;;4991881;28;20168;-80
2022/10/31 08:18:12;;;;;;;15.27;9.57;;;15.70;99.90;;;;;;4992003;28;20185;-78
2022/10/31 08:20:38;;;;;;;19.15;9.82;;;15.60;99.90;;;;;;4991398;28;20165;-81
2022/10/31 08:23:05;;;;;;;23.67;9.77;;;15.90;99.90;;;;;;5007576;28;20215;-79
2022/10/31 08:25:33;;;;;;;18.90;9.52;;;16.10;99.90;;;;;;4993027;28;20227;-82
2022/10/31 08:27:58;;;;;;;12.82;8.77;;;16.30;99.90;;;;;;4992834;28;20239;-85
2022/10/31 08:30:27;;;;;;;10.40;7.68;;;16.30;99.90;;;;;;4999593;28;20219;-82
2022/10/31 08:33:01;;;;;;;17.27;9.65;;;16.30;99.90;;;;;;5012170;28;20246;-80
2022/10/31 08:35:26;;;;;;;11.90;8.23;;;16.40;99.90;;;;;;5012592;28;20169;-84
2022/10/31 08:37:54;;;;;;;17.25;8.05;;;16.40;99.90;;;;;;5013122;28;20193;-85
2022/10/31 08:40:19;;;;;;;12.57;7.40;;;16.20;99.90;;;;;;5014642;28;20202;-96
2022/10/31 08:42:45;;;;;;;11.82;7.72;;;16.20;99.90;;;;;;5016505;28;20215;-88
2022/10/31 08:45:10;;;;;;;15.95;8.68;;;16.10;99.90;;;;;;5015928;28;20546;-86
2022/10/31 08:47:36;;;;;;;18.70;7.78;;;16.00;99.90;;;;;;5005588;28;20644;-86
2022/10/31 08:50:02;;;;;;;17.60;9.30;;;15.80;99.90;;;;;;4999709;28;20242;-90
2022/10/31 08:52:28;;;;;;;21.25;8.77;;;15.60;99.90;;;;;;5013322;28;20215;-80
2022/10/31 08:54:53;;;;;;;9.70;8.77;;;15.80;99.90;;;;;;5000942;28;20181;-94
2022/10/31 08:57:19;;;;;;;12.90;8.50;;;16.10;99.90;;;;;;4997333;28;20195;-94
2022/10/31 08:59:44;;;;;;;12.77;9.65;;;16.30;99.90;;;;;;5013200;28;20197;-87
2022/10/31 09:02:10;;;;;;;12.10;9.15;;;16.40;99.90;;;;;;5012253;28;20256;-82
2022/10/31 09:04:37;;;;;;;12.98;8.93;;;16.40;99.90;;;;;;5017071;28;20183;-96
2022/10/31 09:07:03;;;;;;;14.98;9.23;;;16.40;99.90;;;;;;5015842;28;20208;-82
2022/10/31 09:09:28;;;;;;;17.20;9.38;;;16.60;99.90;;;;;;5008776;28;20177;-83
2022/10/31 09:11:55;;;;;;;22.40;9.27;;;16.60;99.90;;;;;;4998511;28;20169;-93
2022/10/31 09:14:20;;;;;;;19.80;9.73;;;16.60;99.90;;;;;;5000144;28;20208;-82
2022/10/31 09:16:46;;;;;;;12.18;8.90;;;16.70;99.90;;;;;;4996916;28;20196;-84
2022/10/31 09:19:11;;;;;;;11.63;8.43;;;16.70;99.90;;;;;;4995680;28;20183;-89
2022/10/31 09:21:37;;;;;;;14.32;8.52;;;16.70;99.90;;;;;;4996216;28;20265;-81
2022/10/31 09:24:03;;;;;;;19.85;8.38;;;16.60;99.90;;;;;;4996581;28;20205;-81
2022/10/31 09:26:28;;;;;;;18.90;8.30;;;16.80;99.90;;;;;;4996430;28;20256;-89
2022/10/31 09:28:54;;;;;;;22.80;8.55;;;16.70;99.90;;;;;;5002043;28;20179;-88
2022/10/31 09:31:19;;;;;;;12.45;7.38;;;16.80;99.90;;;;;;5016822;28;20176;-89
2022/10/31 09:33:45;;;;;;;12.82;6.88;;;16.90;99.90;;;;;;5015376;28;20207;-81
2022/10/31 09:36:11;;;;;;;13.60;7.10;;;16.90;99.90;;;;;;5020648;28;20244;-88
2022/10/31 09:38:36;;;;;;;18.70;7.45;;;17.10;99.90;;;;;;5016409;28;20192;-80
2022/10/31 09:41:17;;;;;;;15.13;7.22;;;17.20;99.90;;;;;;5016659;28;20149;-92
2022/10/31 09:43:48;;;;;;;16.25;8.15;;;17.20;99.90;;;;;;5016306;28;20169;-92
2022/10/31 09:46:16;;;;;;;15.85;7.70;;;17.30;99.90;;;;;;5016061;28;20579;-95
2022/10/31 09:48:53;;;;;;;14.45;7.47;;;17.30;99.90;;;;;;5016608;28;20264;-90
2022/10/31 09:51:24;;;;;;;8.70;7.32;;;17.40;99.90;;;;;;5021640;28;20251;-90
2022/10/31 09:53:56;;;;;;;13.13;7.65;;;17.30;99.90;;;;;;5016346;28;20246;-91
2022/10/31 09:56:24;;;;;;;11.32;7.68;;;17.40;99.90;;;;;;5020343;28;20165;-89
2022/10/31 09:59:01;;;;;;;8.07;7.28;;;17.50;99.90;;;;;;5014289;28;20169;-85
2022/10/31 10:01:42;;;;;;;15.25;7.38;;;17.70;99.90;;;;;;5011564;28;20169;-79
2022/10/31 10:04:39;;;;;;;18.77;8.00;;;17.50;99.90;;;;;;5002533;28;20219;-89
2022/10/31 10:07:28;;;;;;;7.88;7.18;;;17.70;99.90;;;;;;4995007;28;20255;-83
2022/10/31 10:09:54;;;;;;;13.18;8.50;;;17.80;99.90;;;;;;4989780;28;20541;-87
2022/10/31 10:12:38;;;;;;;11.93;7.93;;;18.00;99.90;;;;;;4995810;28;20169;-93
2022/10/31 10:15:34;;;;;;;9.88;6.82;;;17.90;99.90;;;;;;4993565;28;20189;-93
2022/10/31 10:18:18;;;;;;;10.32;5.97;;;18.00;99.90;;;;;;4994463;28;20193;-83
2022/10/31 10:21:16;;;;;;;8.95;5.70;;;17.70;99.90;;;;;;4995560;28;20165;-88
2022/10/31 10:23:45;;;;;;;15.45;6.18;;;17.70;99.90;;;;;;4995385;28;20644;-83
2022/10/31 10:26:17;;;;;;;11.23;5.90;;;17.90;99.90;;;;;;4994672;28;20192;-83
2022/10/31 10:28:47;;;;;;;6.97;5.80;;;17.80;99.90;;;;;;4994047;28;20240;-88
2022/10/31 10:31:18;;;;;;;15.65;7.07;;;17.80;99.90;;;;;;4992916;28;20169;-90
2022/10/31 10:34:11;;;;;;;13.10;7.72;;;18.00;99.90;;;;;;5001230;28;20216;-89
2022/10/31 10:36:42;;;;;;;11.10;7.43;;;18.20;99.90;;;;;;5012579;28;20167;-91
2022/10/31 10:39:15;;;;;;;10.73;6.55;;;18.30;99.90;;;;;;5012559;28;20677;-84
2022/10/31 10:41:47;;;;;;;14.05;6.97;;;18.10;99.90;;;;;;5012940;28;20168;-83
2022/10/31 10:44:12;;;;;;;17.00;6.97;;;18.00;99.90;;;;;;5011760;28;20195;-92
2022/10/31 10:49:36;;;;;;;14.57;6.70;;;18.10;99.90;;;;;;5012290;28;20179;-77
2022/10/31 10:52:31;;;;;;;14.95;6.80;;;18.00;99.90;;;;;;5012703;28;20608;-78
2022/10/31 10:55:33;;;;;;;12.30;7.70;;;17.80;99.90;;;;;;5011073;28;20253;-78
2022/10/31 10:58:05;;;;;;;9.68;6.45;;;17.80;99.90;;;;;;4996406;28;20204;-77
2022/10/31 11:00:42;;;;;;;13.32;7.30;;;17.90;99.90;;;;;;4996803;28;20184;-77
2022/10/31 11:03:10;;;;;;;11.23;7.97;;;17.80;99.90;;;;;;4994110;28;20265;-82
2022/10/31 11:05:51;;;;;;;16.75;7.43;;;17.90;99.90;;;;;;5004226;28;20296;-82
2022/10/31 11:08:34;;;;;;;17.08;7.68;;;17.70;99.90;;;;;;5001253;28;20209;-88
2022/10/31 11:11:29;;;;;;;12.40;6.47;;;17.70;99.90;;;;;;4999931;28;20181;-83
2022/10/31 11:14:03;;;;;;;12.88;7.72;;;17.70;99.90;;;;;;4998194;28;20300;-92
2022/10/31 11:16:45;;;;;;;14.20;7.20;;;17.80;99.90;;;;;;4994672;28;20166;-85
2022/10/31 11:19:18;;;;;;;12.90;7.80;;;17.70;99.90;;;;;;4995248;28;20165;-90
2022/10/31 11:21:45;;;;;;;10.10;8.05;;;17.90;99.90;;;;;;4995497;28;20257;-93
2022/10/31 11:24:10;;;;;;;13.10;7.30;;;17.80;99.90;;;;;;4956752;28;1095480;-91
2022/10/31 11:26:40;;;;;;;13.45;8.10;;;17.70;99.90;;;;;;4996348;28;20173;-93
2022/10/31 11:29:15;;;;;;;16.50;7.55;;;17.80;99.90;;;;;;5008136;28;20168;-86
2022/10/31 11:31:41;;;;;;;13.63;6.63;;;17.90;99.90;;;;;;4994645;28;20173;-91
2022/10/31 11:34:22;;;;;;;18.48;7.70;;;18.00;99.90;;;;;;4999573;28;20224;-92
2022/10/31 11:36:48;;;;;;;18.45;8.48;;;18.10;99.90;;;;;;4995173;28;20195;-89
2022/10/31 11:39:19;;;;;;;13.73;7.70;;;18.00;99.90;;;;;;4995622;28;20627;-92
2022/10/31 11:41:45;;;;;;;15.20;7.60;;;17.90;99.90;;;;;;4994245;28;20165;-88
2022/10/31 11:44:18;;;;;;;13.18;6.78;;;18.00;99.90;;;;;;4995581;28;20169;-90
2022/10/31 11:46:50;;;;;;;8.20;7.40;;;17.80;99.90;;;;;;4994233;28;20212;-90
2022/10/31 11:49:43;;;;;;;14.68;7.68;;;17.90;99.90;;;;;;4995841;28;20157;-90
2022/10/31 11:52:37;;;;;;;22.83;8.27;;;18.00;99.90;;;;;;5001280;28;20255;-90
2022/10/31 11:55:12;;;;;;;12.05;7.20;;;18.10;99.90;;;;;;5017221;28;20198;-87
2022/10/31 11:57:50;;;;;;;13.57;7.00;;;18.00;99.90;;;;;;5013839;28;20200;-90
2022/10/31 12:00:24;;;;;;;11.38;6.68;;;18.10;99.90;;;;;;5006469;28;20197;-92
2022/10/31 12:02:50;;;;;;;16.58;8.18;;;18.00;99.90;;;;;;5016066;28;20231;-91
2022/10/31 12:05:25;;;;;;;17.45;7.45;;;18.20;99.90;;;;;;5005320;28;20208;-81
2022/10/31 12:07:51;;;;;;;13.30;6.57;;;18.40;99.90;;;;;;4998112;28;20236;-90
2022/10/31 12:10:21;;;;;;;18.65;7.68;;;18.30;99.90;;;;;;4999726;28;20169;-92
2022/10/31 12:13:13;;;;;;;17.98;7.57;;;18.30;99.90;;;;;;5001571;28;20169;-92
2022/10/31 12:15:45;;;;;;;11.07;6.80;;;18.30;99.90;;;;;;4994163;28;20169;-94
2022/10/31 12:18:49;;;;;;;32.00;7.90;;;18.40;99.90;;;;;;4993470;28;20181;-89
2022/10/31 12:21:41;;;;;;;19.60;7.22;;;18.50;99.90;;;;;;4994978;28;20239;-92
2022/10/31 12:24:27;;;;;;;22.88;7.63;;;18.60;99.90;;;;;;4993919;28;20217;-93
2022/10/31 12:27:03;;;;;;;14.52;7.15;;;18.80;99.90;;;;;;4994091;28;20272;-92
2022/10/31 12:29:58;;;;;;;23.83;7.10;;;18.70;99.90;;;;;;4993486;28;20231;-93
2022/10/31 12:32:39;;;;;;;17.48;7.18;;;18.70;99.90;;;;;;4995742;28;20627;-93
2022/10/31 12:35:19;;;;;;;11.65;6.78;;;18.60;99.90;;;;;;4994425;28;20177;-89
2022/10/31 12:37:45;;;;;;;37.05;8.02;;;18.80;99.90;;;;;;4994172;28;20193;-96
2022/10/31 12:40:35;;;;;;;10.82;6.72;;;18.80;99.90;;;;;;5017265;28;20592;-92
2022/10/31 12:43:06;;;;;;;10.32;6.82;;;19.00;99.90;;;;;;5017337;28;20215;-92
2022/10/31 12:46:00;;;;;;;13.00;6.90;;;19.00;99.90;;;;;;5004244;28;20208;-92
2022/10/31 12:48:31;;;;;;;13.00;6.70;;;19.10;99.90;;;;;;5003874;28;20678;-81
2022/10/31 12:51:32;;;;;;;9.38;5.85;;;19.10;99.90;;;;;;5014432;28;20173;-81
2022/10/31 12:54:20;;;;;;;10.90;6.15;;;19.30;99.90;;;;;;5002911;28;20212;-91
2022/10/31 12:57:12;;;;;;;13.07;6.63;;;19.20;99.90;;;;;;5015921;28;20686;-80
2022/10/31 12:59:44;;;;;;;22.23;6.68;;;19.10;99.90;;;;;;4995349;28;20188;-84